Time;durP1;ratioP1;P1;durP2;ratioP2;P2;SDS_P1;SDS_P2;PMS_P1;PMS_P2;Temp;Humidity;BMP_temperature;BMP_pressure;BME280_temperature;BME280_humidity;BME280_pressure;Samples;Min_cycle;Max_cycle;Signal;HPM_P1;HPM_P2
2021/12/14 00:01:41;;;;;;;218.47;87.23;;;;;;;-1.71;76.73;99992.83;2188931;81;21016;-80
2021/12/14 00:04:41;;;;;;;193.50;76.07;;;;;;;-1.73;76.58;99996.93;2189410;81;20948;-81
2021/12/14 00:07:42;;;;;;;196.17;78.23;;;;;;;-1.80;76.68;99986.95;2189364;81;20949;-79
2021/12/14 00:11:08;;;;;;;215.67;85.97;;;;;;;-1.77;76.77;99989.75;2189664;81;20928;-80
2021/12/14 00:13:56;;;;;;;220.00;88.23;;;;;;;-1.80;76.63;99986.95;2186872;81;20964;-79
2021/12/14 00:16:50;;;;;;;210.93;83.97;;;;;;;-1.84;76.81;99990.94;2188463;81;21308;-79
2021/12/14 00:19:50;;;;;;;216.13;85.23;;;;;;;-1.85;76.89;99985.70;2189848;81;21308;-79
2021/12/14 00:25:56;;;;;;;227.10;85.43;;;;;;;-1.88;77.16;99982.91;2166568;81;21043;-79
2021/12/14 00:28:57;;;;;;;224.60;87.13;;;;;;;-1.90;77.32;99990.84;2185310;81;21312;-80
2021/12/14 00:31:57;;;;;;;233.77;87.33;;;;;;;-1.88;77.38;99982.52;2185065;81;20960;-79
2021/12/14 00:34:59;;;;;;;219.67;89.13;;;;;;;-1.87;77.50;99982.12;2185242;81;21018;-79
2021/12/14 00:37:59;;;;;;;229.90;88.80;;;;;;;-1.82;77.63;99982.99;2185146;81;20987;-80
2021/12/14 00:41:00;;;;;;;214.47;87.07;;;;;;;-1.82;77.60;100000.02;2184802;81;21019;-80
2021/12/14 00:44:00;;;;;;;226.60;85.97;;;;;;;-1.83;77.57;99999.13;2185351;81;20932;-80
2021/12/14 00:47:01;;;;;;;230.83;89.00;;;;;;;-1.83;77.66;99990.55;2185424;81;21396;-79
2021/12/14 00:50:01;;;;;;;210.17;79.57;;;;;;;-1.81;77.71;100001.80;2185466;81;20929;-79
2021/12/14 00:53:02;;;;;;;224.73;81.37;;;;;;;-1.83;77.54;100005.91;2185405;81;20948;-80
2021/12/14 00:56:02;;;;;;;212.63;83.43;;;;;;;-1.84;77.53;99999.89;2185380;81;20972;-80
2021/12/14 00:59:03;;;;;;;195.30;78.20;;;;;;;-1.89;77.57;100004.15;2185386;81;20957;-80
2021/12/14 01:02:03;;;;;;;177.00;73.50;;;;;;;-1.90;77.55;99997.24;2185208;81;21372;-79
2021/12/14 01:05:04;;;;;;;170.00;72.90;;;;;;;-1.88;77.45;100011.95;2185620;81;20956;-79
2021/12/14 01:08:04;;;;;;;162.47;71.97;;;;;;;-1.88;77.52;100009.77;2185414;81;20939;-79
2021/12/14 01:11:06;;;;;;;168.43;71.93;;;;;;;-1.89;77.41;100001.20;2185229;81;20960;-80
2021/12/14 01:14:07;;;;;;;164.93;68.33;;;;;;;-1.88;77.23;100000.81;2185689;81;21367;-80
2021/12/14 01:17:13;;;;;;;145.37;64.70;;;;;;;-1.86;77.18;100000.16;2184595;81;20948;-80
2021/12/14 01:20:13;;;;;;;144.77;61.77;;;;;;;-1.83;77.27;99996.95;2184873;81;21014;-79
2021/12/14 01:23:18;;;;;;;140.77;61.37;;;;;;;-1.83;77.20;99995.28;2185124;81;21372;-79
2021/12/14 01:26:17;;;;;;;133.40;58.50;;;;;;;-1.80;76.87;99986.95;2189101;81;21384;-79
2021/12/14 01:29:19;;;;;;;121.80;57.13;;;;;;;-1.80;76.80;99987.84;2189192;81;21320;-79
2021/12/14 01:32:21;;;;;;;135.70;62.10;;;;;;;-1.83;76.60;99979.92;2189252;81;21300;-81
2021/12/14 01:35:23;;;;;;;121.63;56.87;;;;;;;-1.82;76.60;99987.22;2189352;81;20940;-80
2021/12/14 01:41:29;;;;;;;119.73;56.00;;;;;;;-1.95;76.37;99994.32;2171847;81;21052;-80
2021/12/14 01:44:30;;;;;;;118.80;57.20;;;;;;;-2.00;76.44;99999.08;2189053;81;20972;-79
2021/12/14 01:47:30;;;;;;;118.53;54.83;;;;;;;-2.03;76.41;99995.00;2189331;81;21000;-79
2021/12/14 01:50:31;;;;;;;110.63;51.03;;;;;;;-2.06;76.56;99999.88;2189310;81;20936;-79
2021/12/14 01:53:31;;;;;;;115.60;56.77;;;;;;;-2.12;76.22;99998.11;2189196;81;21292;-79
2021/12/14 01:56:32;;;;;;;110.67;54.63;;;;;;;-2.22;76.43;100001.09;2189433;81;20976;-80
2021/12/14 01:59:38;;;;;;;116.43;53.73;;;;;;;-2.30;76.55;100010.31;2189276;81;21348;-79
2021/12/14 02:02:44;;;;;;;122.03;55.83;;;;;;;-2.38;76.67;100007.53;2188908;81;20960;-79
2021/12/14 02:05:43;;;;;;;118.57;56.53;;;;;;;-2.41;76.85;100004.72;2189095;81;20971;-79
2021/12/14 02:08:44;;;;;;;120.07;51.77;;;;;;;-2.44;76.84;100008.31;2188788;81;21004;-79
2021/12/14 02:11:44;;;;;;;119.60;55.90;;;;;;;-2.46;76.89;100012.41;2188931;81;21003;-79
2021/12/14 02:14:45;;;;;;;110.20;50.77;;;;;;;-2.47;77.18;100003.34;2189348;81;20904;-79
2021/12/14 02:17:45;;;;;;;110.90;50.27;;;;;;;-2.42;77.40;99999.48;2189183;81;20980;-78
2021/12/14 02:20:46;;;;;;;113.17;52.73;;;;;;;-2.39;77.30;99995.90;2189522;81;21273;-79
2021/12/14 02:23:46;;;;;;;107.00;51.53;;;;;;;-2.37;77.23;99994.36;2187373;81;21000;-78
2021/12/14 02:26:47;;;;;;;108.90;52.03;;;;;;;-2.29;77.35;99993.31;2172553;81;21008;-79
2021/12/14 02:29:47;;;;;;;125.73;56.63;;;;;;;-2.28;77.23;99995.98;2172638;81;20937;-78
2021/12/14 02:32:48;;;;;;;116.97;55.57;;;;;;;-2.28;77.41;99995.98;2172697;81;21311;-79
2021/12/14 02:35:48;;;;;;;124.17;53.53;;;;;;;-2.26;77.58;99993.55;2172608;81;21016;-78
2021/12/14 02:38:53;;;;;;;129.63;54.07;;;;;;;-2.21;77.53;99999.93;2171784;81;20993;-79
2021/12/14 02:41:51;;;;;;;117.23;54.23;;;;;;;-2.18;77.50;99995.06;2172343;81;20945;-78
2021/12/14 02:44:52;;;;;;;117.60;54.80;;;;;;;-2.10;77.61;99994.39;2172722;81;20989;-79
2021/12/14 02:47:52;;;;;;;114.87;52.83;;;;;;;-2.04;77.42;99987.20;2172390;81;21007;-79
2021/12/14 02:50:53;;;;;;;123.10;53.93;;;;;;;-2.05;77.10;99983.75;2172550;81;20910;-79
2021/12/14 02:53:53;;;;;;;111.73;54.53;;;;;;;-2.01;77.17;99985.78;2172619;81;21428;-79
2021/12/14 02:56:54;;;;;;;121.10;54.50;;;;;;;-2.04;76.91;99984.64;2172558;81;20992;-79
2021/12/14 02:59:54;;;;;;;125.17;55.90;;;;;;;-2.07;77.08;99989.52;2172554;81;20992;-79
2021/12/14 03:02:56;;;;;;;119.63;54.40;;;;;;;-2.04;77.15;99988.09;2172459;81;20993;-79
2021/12/14 03:05:59;;;;;;;113.93;50.73;;;;;;;-2.01;76.97;99991.28;2172145;81;20936;-79
2021/12/14 03:09:19;;;;;;;115.80;52.67;;;;;;;-2.01;77.00;99987.05;2172931;81;21391;-77
2021/12/14 03:12:02;;;;;;;118.23;53.27;;;;;;;-2.02;76.94;99994.22;2171061;81;20983;-79
2021/12/14 03:15:02;;;;;;;106.13;50.33;;;;;;;-2.06;76.95;99994.75;2172518;81;20957;-78
2021/12/14 03:18:03;;;;;;;133.77;58.60;;;;;;;-2.05;76.95;99983.75;2172449;81;21256;-79
2021/12/14 03:21:03;;;;;;;116.77;53.43;;;;;;;-2.06;77.01;99987.08;2172634;81;21063;-78
2021/12/14 03:24:04;;;;;;;113.53;53.53;;;;;;;-2.08;76.89;99987.34;2172466;81;21118;-79
2021/12/14 03:27:04;;;;;;;114.43;52.70;;;;;;;-2.09;76.93;99986.84;2172599;81;21385;-78
2021/12/14 03:30:05;;;;;;;114.27;53.23;;;;;;;-2.08;76.87;99981.33;2173463;81;20921;-80
2021/12/14 03:33:05;;;;;;;111.70;51.83;;;;;;;-2.07;76.86;99986.95;2172593;81;20992;-79
2021/12/14 03:36:06;;;;;;;114.40;51.80;;;;;;;-2.02;76.76;99988.21;2172818;81;20997;-80
2021/12/14 03:39:06;;;;;;;107.17;49.57;;;;;;;-2.02;76.58;99982.70;2172909;81;20957;-79
2021/12/14 03:42:07;;;;;;;109.27;49.73;;;;;;;-2.03;76.46;99985.15;2172864;81;21369;-79
2021/12/14 03:45:07;;;;;;;97.70;46.77;;;;;;;-2.03;76.66;99985.15;2172918;81;20981;-80
2021/12/14 03:48:08;;;;;;;104.60;48.53;;;;;;;-2.03;76.34;99988.59;2172861;81;20932;-79
2021/12/14 03:51:08;;;;;;;109.70;46.93;;;;;;;-2.07;76.06;99978.00;2172523;81;20976;-79
2021/12/14 03:54:09;;;;;;;101.60;44.90;;;;;;;-2.16;75.92;99982.01;2172834;81;21388;-79
2021/12/14 03:57:09;;;;;;;99.40;44.83;;;;;;;-2.28;76.15;99984.86;2172858;81;20961;-78
2021/12/14 04:00:10;;;;;;;96.13;44.60;;;;;;;-2.32;76.37;99989.23;2172806;81;20976;-78
2021/12/14 04:03:11;;;;;;;94.30;44.43;;;;;;;-2.32;76.73;99990.12;2172781;81;20898;-79
2021/12/14 04:06:11;;;;;;;99.37;42.80;;;;;;;-2.30;76.74;99982.57;2173100;81;20992;-79
2021/12/14 04:09:12;;;;;;;98.77;43.13;;;;;;;-2.24;76.70;99988.17;2172927;81;21400;-80
2021/12/14 04:12:13;;;;;;;94.53;43.67;;;;;;;-2.20;76.65;99984.20;2172019;81;20964;-79
2021/12/14 04:15:14;;;;;;;93.73;42.53;;;;;;;-2.19;76.46;99977.92;2172476;81;20975;-78
2021/12/14 04:18:14;;;;;;;87.37;40.77;;;;;;;-2.22;76.30;99983.19;2172115;81;20977;-79
2021/12/14 04:21:15;;;;;;;91.50;42.40;;;;;;;-2.23;76.38;99978.84;2172366;81;21027;-79
2021/12/14 04:24:15;;;;;;;94.87;45.17;;;;;;;-2.25;76.22;99980.89;2174478;81;20988;-80
2021/12/14 04:27:16;;;;;;;95.50;44.20;;;;;;;-2.22;76.18;99984.08;2189941;81;20952;-79
2021/12/14 04:30:17;;;;;;;94.77;42.97;;;;;;;-2.19;76.23;99981.77;2189215;81;20956;-78
2021/12/14 04:33:17;;;;;;;94.73;42.97;;;;;;;-2.19;76.01;99979.59;2189253;81;21376;-78
2021/12/14 04:36:19;;;;;;;100.83;44.03;;;;;;;-2.27;76.01;99982.43;2188833;81;20940;-79
2021/12/14 04:52:22;;;;;;;119.67;46.83;;;;;;;-2.22;76.30;99984.46;2189076;81;20979;-79
2021/12/14 04:55:22;;;;;;;115.57;48.90;;;;;;;-2.21;76.22;99973.46;2188889;81;21419;-78
2021/12/14 04:58:23;;;;;;;134.00;56.00;;;;;;;-2.25;76.25;99970.66;2189019;81;21329;-79
2021/12/14 05:01:23;;;;;;;138.03;58.13;;;;;;;-2.29;76.12;99969.02;2188721;81;20947;-78
2021/12/14 05:04:24;;;;;;;144.40;60.47;;;;;;;-2.29;76.14;99977.96;2189004;81;20960;-78
2021/12/14 05:10:33;;;;;;;143.40;60.07;;;;;;;-2.27;76.22;99981.16;2170641;81;20975;-79
2021/12/14 05:13:33;;;;;;;130.50;55.20;;;;;;;-2.26;76.26;99978.20;2187746;81;20944;-78
2021/12/14 05:16:34;;;;;;;128.33;56.60;;;;;;;-2.22;76.32;99986.63;2188766;81;20947;-79
2021/12/14 05:19:35;;;;;;;137.90;56.27;;;;;;;-2.18;76.13;99980.99;2188946;81;20966;-78
2021/12/14 05:22:35;;;;;;;126.37;51.33;;;;;;;-2.21;75.97;99983.69;2189077;81;20975;-79
2021/12/14 05:25:38;;;;;;;111.10;47.80;;;;;;;-1.40;81.78;99976.48;2180579;81;21471;-80
2021/12/14 05:28:38;;;;;;;117.73;49.43;;;;;;;-1.06;76.03;99970.96;2171573;81;21336;-79
2021/12/14 05:31:39;;;;;;;122.33;52.40;;;;;;;-1.23;75.11;99973.03;2170728;81;20945;-80
2021/12/14 05:34:39;;;;;;;117.83;50.80;;;;;;;-1.52;75.01;99966.59;2170718;81;20988;-81
2021/12/14 05:37:48;;;;;;;113.47;47.87;;;;;;;-1.71;74.95;99969.39;2171695;81;20917;-80
2021/12/14 05:43:54;;;;;;;128.03;53.37;;;;;;;-2.04;75.54;99966.34;2160945;82;20948;-80
2021/12/14 05:46:54;;;;;;;110.80;45.23;;;;;;;-2.11;75.53;99965.36;2172040;81;20929;-80
2021/12/14 05:49:55;;;;;;;109.83;47.63;;;;;;;-2.18;75.79;99970.76;2171315;82;21049;-80
2021/12/14 05:52:55;;;;;;;110.17;46.90;;;;;;;-2.23;76.01;99971.16;2171485;81;20972;-79
2021/12/14 05:55:56;;;;;;;99.73;44.03;;;;;;;-2.21;76.19;99973.08;2170509;81;21004;-79
2021/12/14 05:58:57;;;;;;;113.63;47.33;;;;;;;-2.25;76.14;99966.82;2170939;82;20921;-79
2021/12/14 06:01:57;;;;;;;109.40;48.17;;;;;;;-2.29;76.22;99965.17;2170901;81;20972;-80
2021/12/14 06:04:58;;;;;;;109.27;47.27;;;;;;;-2.32;76.44;99970.05;2168443;81;20964;-80
2021/12/14 06:07:58;;;;;;;100.47;44.20;;;;;;;-2.30;76.65;99968.13;2169646;82;21004;-81
2021/12/14 06:11:04;;;;;;;118.20;46.10;;;;;;;-2.29;76.63;99968.63;2170101;81;20948;-81
2021/12/14 06:14:06;;;;;;;110.27;47.37;;;;;;;-2.27;76.77;99968.75;2170765;81;20972;-80
2021/12/14 06:17:06;;;;;;;101.70;42.60;;;;;;;-2.26;76.97;99968.88;2171315;82;20925;-80
2021/12/14 06:20:07;;;;;;;103.03;46.03;;;;;;;-2.26;76.68;99957.75;2170769;81;21004;-80
2021/12/14 06:23:07;;;;;;;108.77;46.63;;;;;;;-2.29;76.67;99960.06;2170489;81;21012;-79
2021/12/14 06:26:08;;;;;;;104.30;45.50;;;;;;;-2.34;76.64;99951.13;2179910;81;21019;-80
2021/12/14 06:29:08;;;;;;;156.00;46.97;;;;;;;-2.34;76.79;99952.41;2186334;81;20961;-80
2021/12/14 06:32:09;;;;;;;110.93;47.20;;;;;;;-2.35;76.85;99951.91;2186428;81;21004;-79
2021/12/14 06:35:10;;;;;;;101.93;44.47;;;;;;;-2.31;76.84;99951.38;2185897;81;20983;-78
2021/12/14 06:38:23;;;;;;;105.23;45.63;;;;;;;-2.32;76.94;99947.92;2186639;81;20979;-78
2021/12/14 06:41:12;;;;;;;105.80;44.60;;;;;;;-2.29;76.92;99948.17;2185103;81;21380;-79
2021/12/14 06:44:13;;;;;;;102.03;44.73;;;;;;;-2.29;77.05;99951.11;2187032;81;21012;-78
2021/12/14 06:47:14;;;;;;;106.83;45.17;;;;;;;-2.26;77.10;99947.13;2187072;81;21344;-78
2021/12/14 06:50:14;;;;;;;99.60;44.23;;;;;;;-2.20;77.29;99951.84;2186891;81;20956;-78
2021/12/14 06:53:15;;;;;;;111.90;47.47;;;;;;;-2.13;77.36;99951.94;2186587;81;21016;-79
2021/12/14 06:56:15;;;;;;;109.50;46.77;;;;;;;-2.10;77.20;99946.67;2186620;81;21742;-79
2021/12/14 06:59:16;;;;;;;107.73;45.90;;;;;;;-2.05;77.34;99953.05;2187372;81;20948;-80
2021/12/14 07:02:16;;;;;;;103.17;45.87;;;;;;;-1.99;77.25;99945.84;2186883;81;21023;-79
2021/12/14 07:05:17;;;;;;;110.53;47.17;;;;;;;-2.00;77.13;99941.50;2187593;81;21012;-79
2021/12/14 07:08:21;;;;;;;117.40;48.30;;;;;;;-2.05;77.18;99938.97;2187984;81;21329;-79
2021/12/14 07:11:20;;;;;;;111.37;45.97;;;;;;;-2.10;77.20;99942.84;2187103;81;21004;-78
2021/12/14 07:14:20;;;;;;;110.33;45.87;;;;;;;-2.10;77.60;99947.06;2187415;81;20936;-78
2021/12/14 07:17:21;;;;;;;114.27;46.73;;;;;;;-2.03;77.81;99945.48;2187179;81;21113;-78
2021/12/14 07:20:21;;;;;;;114.97;47.40;;;;;;;-1.96;77.76;99950.31;2186964;81;20968;-78
2021/12/14 07:23:23;;;;;;;105.23;45.87;;;;;;;-1.89;77.61;99945.28;2187211;81;21576;-78
2021/12/14 07:26:24;;;;;;;114.30;47.93;;;;;;;-1.85;77.65;99944.75;2187139;81;20996;-79
2021/12/14 07:29:24;;;;;;;103.93;47.23;;;;;;;-1.79;77.40;99943.95;2186984;81;21008;-78
2021/12/14 07:32:25;;;;;;;100.57;45.07;;;;;;;-1.67;77.41;99951.33;2187277;81;21415;-80
2021/12/14 07:35:27;;;;;;;109.10;45.60;;;;;;;-1.65;77.03;99957.45;2187421;81;20944;-78
2021/12/14 07:38:27;;;;;;;108.03;47.70;;;;;;;-1.68;77.01;99957.22;2187531;81;21042;-80
2021/12/14 07:41:30;;;;;;;116.47;50.13;;;;;;;-1.66;77.12;99960.80;2187182;81;21003;-79
2021/12/14 07:44:32;;;;;;;105.80;46.47;;;;;;;-1.58;76.98;99959.71;2186785;81;20983;-80
2021/12/14 07:47:33;;;;;;;108.00;46.70;;;;;;;-1.53;76.98;99963.52;2187167;81;20975;-80
2021/12/14 07:50:33;;;;;;;99.50;45.53;;;;;;;-1.50;77.10;99972.72;2186794;81;21590;-80
2021/12/14 07:53:34;;;;;;;110.30;48.40;;;;;;;-1.48;77.10;99968.61;2186956;81;20917;-79
2021/12/14 07:56:34;;;;;;;106.23;46.77;;;;;;;-1.39;77.23;99969.70;2186847;81;20972;-79
2021/12/14 07:59:35;;;;;;;114.20;50.63;;;;;;;-1.25;77.08;99972.02;2187486;81;20944;-79
2021/12/14 08:02:35;;;;;;;137.63;50.77;;;;;;;-1.21;76.78;99967.63;2187315;81;20979;-79
2021/12/14 08:05:36;;;;;;;111.20;46.37;;;;;;;-1.15;76.85;99952.73;2187519;81;20920;-79
2021/12/14 08:08:45;;;;;;;115.83;49.67;;;;;;;-1.03;76.77;99947.23;2182851;81;20979;-79
2021/12/14 08:11:48;;;;;;;102.00;43.87;;;;;;;-0.90;76.78;99946.09;2186973;81;20948;-79
2021/12/14 08:14:48;;;;;;;107.20;49.10;;;;;;;-0.82;76.40;99950.53;2188402;81;21042;-80
2021/12/14 08:17:49;;;;;;;107.73;47.50;;;;;;;-0.80;76.40;99953.70;2187496;81;20960;-79
2021/12/14 08:20:51;;;;;;;107.77;49.13;;;;;;;-0.75;76.31;99953.66;2186791;81;21007;-79
2021/12/14 08:23:52;;;;;;;103.80;46.83;;;;;;;-0.71;76.17;99960.80;2186978;81;20948;-79
2021/12/14 08:26:52;;;;;;;114.30;50.93;;;;;;;-0.68;76.12;99953.72;2187470;81;21019;-80
2021/12/14 08:29:53;;;;;;;100.40;47.73;;;;;;;-0.71;76.11;99951.82;2187218;81;21032;-80
2021/12/14 08:32:55;;;;;;;108.40;49.57;;;;;;;-0.73;76.06;99950.81;2170575;81;21265;-79
2021/12/14 08:35:56;;;;;;;111.70;48.90;;;;;;;-0.77;76.02;99954.33;2187517;81;20944;-79
2021/12/14 08:38:56;;;;;;;115.03;48.70;;;;;;;-0.77;76.12;99959.45;2187759;81;21375;-78
2021/12/14 08:41:59;;;;;;;116.30;49.23;;;;;;;-0.74;76.03;99958.39;2187093;81;20975;-78
2021/12/14 08:44:59;;;;;;;124.13;52.73;;;;;;;-0.70;75.83;99966.42;2186473;81;21375;-78
2021/12/14 08:48:00;;;;;;;120.83;54.23;;;;;;;-0.67;75.32;99969.22;2187148;81;20932;-79
2021/12/14 08:51:00;;;;;;;119.97;53.30;;;;;;;-0.65;75.19;99974.45;2187149;81;21614;-79
2021/12/14 08:54:01;;;;;;;135.20;57.70;;;;;;;-0.61;75.16;99969.16;2186892;81;20945;-80
2021/12/14 08:57:01;;;;;;;127.67;55.67;;;;;;;-0.57;75.21;99970.78;2186425;81;21011;-79
2021/12/14 09:00:02;;;;;;;119.10;55.47;;;;;;;-0.49;74.94;99961.97;2187014;81;20991;-81
2021/12/14 09:03:03;;;;;;;124.70;53.80;;;;;;;-0.51;74.69;99961.36;2186186;81;21689;-79
2021/12/14 09:06:03;;;;;;;128.17;55.87;;;;;;;-0.45;74.71;99956.67;2188198;81;21039;-79
2021/12/14 09:09:04;;;;;;;121.60;52.90;;;;;;;-0.39;74.88;99958.40;2186352;81;20928;-80
2021/12/14 09:12:05;;;;;;;121.73;55.10;;;;;;;-0.37;74.22;99949.14;2187206;81;21007;-79
2021/12/14 09:15:05;;;;;;;134.83;58.10;;;;;;;-0.37;74.33;99938.88;2186114;81;21044;-79
2021/12/14 09:18:06;;;;;;;164.53;60.13;;;;;;;-0.32;74.38;99938.42;2187103;81;20943;-81
2021/12/14 09:21:06;;;;;;;133.10;56.13;;;;;;;-0.27;74.27;99934.02;2188086;81;21351;-80
2021/12/14 09:24:07;;;;;;;132.17;59.97;;;;;;;-0.21;74.24;99930.61;2188955;81;20959;-80
2021/12/14 09:27:07;;;;;;;140.13;60.43;;;;;;;-0.10;74.41;99936.10;2188689;81;20999;-83
2021/12/14 09:30:08;;;;;;;140.97;58.00;;;;;;;-0.01;74.12;99941.89;2188174;81;21339;-79
2021/12/14 09:33:08;;;;;;;144.77;60.53;;;;;;;0.05;73.92;99942.35;2187711;81;20947;-79
2021/12/14 09:36:12;;;;;;;139.20;58.17;;;;;;;0.06;73.74;99941.96;2187093;81;20952;-78
2021/12/14 09:39:11;;;;;;;139.40;60.53;;;;;;;0.14;73.70;99936.58;2186898;81;20955;-79
2021/12/14 09:42:11;;;;;;;146.27;60.80;;;;;;;0.17;73.27;99935.51;2187026;81;20972;-78
2021/12/14 09:45:12;;;;;;;142.53;61.33;;;;;;;0.10;73.15;99934.97;2188063;81;20984;-79
2021/12/14 09:48:13;;;;;;;143.43;62.43;;;;;;;0.13;73.65;99931.34;2188381;81;21319;-78
2021/12/14 09:51:13;;;;;;;150.30;64.33;;;;;;;0.20;73.63;99927.13;2187570;81;20975;-79
2021/12/14 09:54:14;;;;;;;148.93;61.53;;;;;;;0.20;73.53;99921.59;2186624;81;21016;-77
2021/12/14 09:57:15;;;;;;;186.30;65.70;;;;;;;0.20;73.71;99921.59;2186388;81;21039;-79
2021/12/14 10:00:15;;;;;;;141.53;60.03;;;;;;;0.22;73.53;99920.03;2186635;81;21030;-79
2021/12/14 10:03:16;;;;;;;146.83;62.17;;;;;;;0.25;73.46;99915.10;2186858;81;20963;-79
2021/12/14 10:06:17;;;;;;;155.43;64.10;;;;;;;0.28;73.59;99915.31;2186794;81;20956;-80
2021/12/14 10:09:18;;;;;;;160.63;68.20;;;;;;;0.26;73.69;99924.59;2187858;81;21710;-80
2021/12/14 10:15:27;;;;;;;154.00;65.30;;;;;;;0.43;73.73;99917.16;2170941;81;21032;-80
2021/12/14 10:18:27;;;;;;;158.93;66.77;;;;;;;0.46;73.70;99915.69;2187287;81;21000;-79
2021/12/14 10:21:29;;;;;;;143.00;63.40;;;;;;;0.43;73.30;99917.16;2187252;81;21028;-80
2021/12/14 10:24:29;;;;;;;163.47;69.17;;;;;;;0.39;73.30;99918.63;2187085;81;21027;-79
2021/12/14 10:27:30;;;;;;;161.77;68.20;;;;;;;0.39;73.67;99913.48;2186942;81;20992;-79
2021/12/14 10:30:30;;;;;;;158.23;64.37;;;;;;;0.37;73.52;99915.05;2188555;81;20952;-79
2021/12/14 10:33:34;;;;;;;162.00;68.93;;;;;;;0.41;73.74;99911.91;2187013;81;20952;-79
2021/12/14 10:36:38;;;;;;;155.40;66.70;;;;;;;0.47;73.89;99917.86;2187047;81;20955;-80
2021/12/14 10:39:41;;;;;;;151.57;64.70;;;;;;;0.48;73.88;99908.98;2188576;81;21017;-80
2021/12/14 10:45:42;;;;;;;162.50;65.73;;;;;;;0.55;73.91;99891.91;2171530;81;21359;-78
2021/12/14 10:48:42;;;;;;;154.17;67.77;;;;;;;0.55;73.92;99897.05;2187678;81;21007;-79
2021/12/14 10:51:43;;;;;;;152.50;66.27;;;;;;;0.60;74.10;99897.35;2188732;81;21312;-79
2021/12/14 10:54:43;;;;;;;168.53;70.60;;;;;;;0.69;74.10;99893.22;2187617;81;20952;-78
2021/12/14 10:57:44;;;;;;;156.67;66.37;;;;;;;0.75;74.27;99889.78;2187231;81;20971;-79
2021/12/14 11:00:45;;;;;;;163.97;67.90;;;;;;;0.86;74.28;99890.98;2187333;81;20983;-79
2021/12/14 11:03:46;;;;;;;162.80;70.10;;;;;;;0.91;74.22;99881.94;2188549;81;21015;-80
2021/12/14 11:06:47;;;;;;;149.07;65.73;;;;;;;0.99;74.23;99875.12;2187103;81;21347;-79
2021/12/14 11:09:53;;;;;;;162.23;69.83;;;;;;;1.04;73.93;99869.48;2186963;81;20971;-80
2021/12/14 11:12:50;;;;;;;164.10;70.03;;;;;;;1.14;74.15;99870.98;2185689;81;20996;-79
2021/12/14 11:15:52;;;;;;;156.47;67.40;;;;;;;1.32;74.19;99877.31;2185947;81;20948;-80
2021/12/14 11:18:53;;;;;;;162.33;69.20;;;;;;;1.43;73.82;99880.17;2186497;81;21019;-79
2021/12/14 11:21:53;;;;;;;159.70;68.33;;;;;;;1.43;73.67;99884.03;2186585;81;21007;-80
2021/12/14 11:24:54;;;;;;;157.27;68.77;;;;;;;1.48;73.77;99883.94;2187095;81;21372;-81
2021/12/14 11:27:54;;;;;;;158.80;71.00;;;;;;;1.63;73.67;99886.98;2187973;81;21059;-81
2021/12/14 11:30:55;;;;;;;162.90;71.23;;;;;;;1.69;73.66;99884.41;2187369;81;20956;-79
2021/12/14 11:33:55;;;;;;;168.73;73.63;;;;;;;1.75;73.50;99884.82;2187157;81;20987;-76
2021/12/14 11:36:56;;;;;;;163.07;70.20;;;;;;;1.72;73.51;99873.02;2186456;81;21336;-80
2021/12/14 11:39:57;;;;;;;161.03;68.67;;;;;;;1.70;73.49;99864.30;2186778;81;20943;-78
2021/12/14 11:42:57;;;;;;;177.30;73.43;;;;;;;1.75;73.50;99863.34;2186162;81;20948;-78
2021/12/14 11:45:58;;;;;;;178.80;74.03;;;;;;;1.76;73.35;99861.26;2186134;81;21007;-79
2021/12/14 11:48:58;;;;;;;169.30;72.47;;;;;;;1.77;73.43;99861.36;2187511;81;21083;-79
2021/12/14 11:51:59;;;;;;;160.77;72.03;;;;;;;1.85;73.57;99858.86;2187452;81;21388;-79
2021/12/14 11:54:59;;;;;;;154.67;66.53;;;;;;;1.93;73.50;99859.73;2187250;81;20984;-79
2021/12/14 11:58:00;;;;;;;169.30;71.47;;;;;;;1.91;73.29;99859.23;2186858;81;21003;-80
2021/12/14 12:01:00;;;;;;;168.43;74.20;;;;;;;1.80;73.40;99850.36;2187106;81;21371;-79
2021/12/14 12:04:01;;;;;;;157.67;68.77;;;;;;;1.78;73.87;99850.66;2187320;81;20943;-79
2021/12/14 12:10:04;;;;;;;158.37;69.00;;;;;;;1.74;73.94;99840.57;2170813;81;20971;-78
2021/12/14 12:13:05;;;;;;;167.43;71.10;;;;;;;1.74;73.99;99839.28;2186813;81;21322;-78
2021/12/14 12:16:06;;;;;;;178.57;73.40;;;;;;;1.72;74.00;99842.13;2186595;81;20959;-78
2021/12/14 12:19:06;;;;;;;161.50;69.10;;;;;;;1.70;74.05;99851.44;2186510;81;21352;-78
2021/12/14 12:22:07;;;;;;;169.23;71.37;;;;;;;1.68;73.96;99849.16;2186781;81;21039;-79
2021/12/14 12:25:08;;;;;;;172.47;68.80;;;;;;;1.65;74.35;99851.55;2187457;81;21391;-76
2021/12/14 12:28:08;;;;;;;179.93;72.70;;;;;;;1.69;74.57;99846.19;2186426;81;20984;-78
2021/12/14 12:31:11;;;;;;;168.87;70.90;;;;;;;1.67;74.67;99847.38;2187714;81;21384;-80
2021/12/14 12:34:11;;;;;;;168.40;70.47;;;;;;;1.69;74.56;99847.08;2187532;81;20948;-79
2021/12/14 12:37:12;;;;;;;169.43;73.77;;;;;;;1.69;74.80;99843.62;2187376;81;20944;-79
2021/12/14 12:40:12;;;;;;;173.23;69.93;;;;;;;1.69;74.89;99843.62;2186405;81;20956;-79
2021/12/14 12:43:13;;;;;;;167.77;70.13;;;;;;;1.69;74.79;99842.33;2186395;81;20958;-79
2021/12/14 12:46:14;;;;;;;152.77;64.00;;;;;;;1.67;75.06;99846.09;2186347;81;21011;-78
2021/12/14 12:49:14;;;;;;;173.07;69.10;;;;;;;1.69;75.00;99839.36;2187749;81;21250;-78
2021/12/14 12:52:15;;;;;;;167.27;69.43;;;;;;;1.71;75.13;99844.60;2187000;81;20952;-80
2021/12/14 12:55:15;;;;;;;176.17;70.70;;;;;;;1.74;75.13;99847.00;2187799;81;20940;-79
2021/12/14 12:58:17;;;;;;;172.43;70.03;;;;;;;1.75;75.25;99849.19;2187301;81;21359;-79
2021/12/14 13:01:18;;;;;;;185.23;73.73;;;;;;;1.66;75.17;99840.85;2187710;81;20991;-78
2021/12/14 13:04:19;;;;;;;173.83;70.30;;;;;;;1.63;75.42;99840.27;2186361;81;20987;-80
2021/12/14 13:07:20;;;;;;;167.93;69.47;;;;;;;1.65;75.48;99842.94;2186543;81;20996;-79
2021/12/14 13:10:22;;;;;;;172.10;71.20;;;;;;;1.64;75.56;99838.19;2186110;81;20920;-79
2021/12/14 13:13:23;;;;;;;172.93;67.70;;;;;;;1.60;75.42;99834.92;2185785;81;20924;-76
2021/12/14 13:16:23;;;;;;;169.83;69.40;;;;;;;1.55;75.50;99838.89;2185388;81;21415;-78
2021/12/14 13:19:25;;;;;;;183.70;70.67;;;;;;;1.52;75.71;99840.87;2185293;81;20920;-78
2021/12/14 13:22:26;;;;;;;171.37;68.07;;;;;;;1.50;76.05;99838.61;2184937;81;20971;-78
2021/12/14 13:25:27;;;;;;;167.53;65.47;;;;;;;1.51;75.95;99830.09;2185873;81;21458;-78
2021/12/14 13:28:27;;;;;;;176.30;67.67;;;;;;;1.44;75.85;99830.50;2173084;81;21483;-79
2021/12/14 13:31:28;;;;;;;176.17;69.10;;;;;;;1.37;76.16;99833.48;2169360;81;20949;-78
2021/12/14 13:34:28;;;;;;;162.83;63.87;;;;;;;1.37;76.34;99837.73;2169412;81;21555;-80
2021/12/14 13:37:29;;;;;;;166.20;68.53;;;;;;;1.35;76.49;99828.63;2169989;81;20952;-80
2021/12/14 13:40:30;;;;;;;163.47;62.47;;;;;;;1.38;76.51;99820.22;2170713;81;21040;-79
2021/12/14 13:43:30;;;;;;;176.73;70.97;;;;;;;1.42;79.50;99819.63;2170842;81;21305;-79
2021/12/14 13:46:31;;;;;;;173.03;65.87;;;;;;;1.71;76.87;99812.03;2170926;81;20999;-78
2021/12/14 13:49:31;;;;;;;159.70;64.60;;;;;;;2.27;77.46;99804.31;2170706;81;20976;-79
2021/12/14 13:52:32;;;;;;;171.07;67.73;;;;;;;2.09;75.60;99800.23;2170443;81;20936;-77
2021/12/14 13:55:32;;;;;;;162.47;67.97;;;;;;;1.77;75.51;99810.27;2170133;81;20996;-77
2021/12/14 13:58:33;;;;;;;169.93;64.13;;;;;;;1.53;75.75;99816.92;2170038;82;21412;-79
2021/12/14 14:01:33;;;;;;;175.83;64.47;;;;;;;1.38;76.12;99817.25;2170229;81;21061;-80
2021/12/14 14:04:35;;;;;;;169.13;66.83;;;;;;;1.27;76.35;99824.69;2170197;81;20948;-80
2021/12/14 14:07:35;;;;;;;178.47;69.10;;;;;;;1.22;76.72;99818.36;2169655;81;21645;-81
2021/12/14 14:10:36;;;;;;;182.53;72.17;;;;;;;1.18;76.84;99821.52;2169782;81;21013;-80
2021/12/14 14:13:36;;;;;;;179.47;69.23;;;;;;;1.12;76.98;99828.84;2170422;81;21328;-80
2021/12/14 14:16:37;;;;;;;185.37;70.03;;;;;;;1.09;77.13;99825.69;2171023;81;20913;-81
2021/12/14 14:19:37;;;;;;;181.60;69.37;;;;;;;1.04;77.29;99830.03;2171385;81;20941;-81